createdAt,value
2019-01-02T00:00:20.467Z,101764.89
2019-01-02T00:02:51.123Z,101751.20
2019-01-02T00:05:21.588Z,101765.70
2019-01-02T00:07:51.964Z,101765.87
2019-01-02T00:10:23.039Z,101770.59
2019-01-02T00:12:53.418Z,101769.28
2019-01-02T00:15:24.185Z,101770.27
2019-01-02T00:17:54.557Z,101781.12
2019-01-02T00:20:24.947Z,101806.85
2019-01-02T00:22:55.340Z,101796.61
2019-01-02T00:25:25.727Z,101788.44
2019-01-02T00:27:56.494Z,101781.80
2019-01-02T00:30:27.868Z,101797.73
2019-01-02T00:32:58.722Z,101803.52
2019-01-02T00:35:29.122Z,101792.78
2019-01-02T00:38:00.041Z,101809.33
2019-01-02T00:40:30.414Z,101801.30
2019-01-02T00:43:00.806Z,101808.42
2019-01-02T00:45:31.485Z,101825.25
2019-01-02T00:48:01.880Z,101838.17
2019-01-02T00:50:32.631Z,101813.67
2019-01-02T00:53:03.020Z,101816.80
2019-01-02T00:55:34.015Z,101846.69
2019-01-02T00:58:04.482Z,101843.59
2019-01-02T01:00:35.349Z,101836.63
2019-01-02T01:03:06.000Z,101836.53
2019-01-02T01:05:36.859Z,101853.16
2019-01-02T01:08:07.245Z,101841.56
2019-01-02T01:10:37.620Z,101862.84
2019-01-02T01:13:08.012Z,101862.16
2019-01-02T01:15:38.768Z,101859.85
2019-01-02T01:18:09.137Z,101850.77
2019-01-02T01:20:40.018Z,101912.70
2019-01-02T01:23:10.415Z,101854.99
2019-01-02T01:25:41.068Z,101916.24
2019-01-02T01:28:11.529Z,101966.20
2019-01-02T01:30:41.947Z,102010.13
2019-01-02T01:33:12.650Z,102040.09
2019-01-02T01:35:43.424Z,102018.52
2019-01-02T01:38:13.827Z,102001.14
2019-01-02T01:40:44.483Z,101990.85
2019-01-02T01:43:14.886Z,102062.59
2019-01-02T01:45:45.264Z,102077.22
2019-01-02T01:48:15.660Z,102039.64
2019-01-02T01:50:46.045Z,102030.86
2019-01-02T01:53:16.934Z,101975.60
2019-01-02T01:55:47.309Z,101973.47
2019-01-02T01:58:17.702Z,101980.78
2019-01-02T02:00:48.573Z,101972.58
2019-01-02T02:03:18.951Z,101980.89
2019-01-02T02:05:49.353Z,102004.20
2019-01-02T02:08:20.103Z,101991.63
2019-01-02T02:10:50.507Z,101996.77
2019-01-02T02:13:21.360Z,102011.25
2019-01-02T02:15:51.760Z,101993.77
2019-01-02T02:18:22.147Z,102023.01
2019-01-02T02:20:53.369Z,101993.52
2019-01-02T02:23:23.769Z,102001.22
2019-01-02T02:25:54.145Z,102012.96
2019-01-02T02:28:24.562Z,102006.14
2019-01-02T02:30:54.934Z,102030.37
2019-01-02T02:33:25.831Z,102008.67
2019-01-02T02:35:56.787Z,102022.93
2019-01-02T02:38:27.466Z,102023.82
2019-01-02T02:40:58.230Z,102094.23
2019-01-02T02:43:28.622Z,102095.84
2019-01-02T02:45:59.020Z,102036.87
2019-01-02T02:48:30.026Z,102035.08
2019-01-02T02:51:01.003Z,102032.41
2019-01-02T02:53:31.651Z,102037.61
2019-01-02T02:56:03.132Z,102061.70
2019-01-02T02:58:33.989Z,102062.91
2019-01-02T03:01:04.776Z,102059.16
2019-01-02T03:03:35.640Z,102082.36
2019-01-02T03:06:06.034Z,102128.78
2019-01-02T03:08:36.413Z,102096.61
2019-01-02T03:11:06.808Z,102072.92
2019-01-02T03:13:38.084Z,102125.13
2019-01-02T03:16:08.951Z,102154.06
2019-01-02T03:18:39.713Z,102083.57
2019-01-02T03:21:10.390Z,102113.73
2019-01-02T03:23:40.783Z,102070.47
2019-01-02T03:26:11.169Z,102071.62
2019-01-02T03:28:41.567Z,102082.30
2019-01-02T03:31:12.614Z,102082.68
2019-01-02T03:33:43.514Z,102095.86
2019-01-02T03:36:13.895Z,102083.08
2019-01-02T03:38:44.625Z,102083.91
2019-01-02T03:41:15.005Z,102119.19
2019-01-02T03:43:45.683Z,102094.30
2019-01-02T03:46:16.075Z,102129.68
2019-01-02T03:48:46.454Z,102106.03
2019-01-02T03:51:16.844Z,102134.42
2019-01-02T03:53:47.222Z,102133.91
2019-01-02T03:56:17.620Z,102159.92
2019-01-02T03:58:47.995Z,102160.75
2019-01-02T04:01:18.399Z,102171.74
2019-01-02T04:03:48.775Z,102139.97
2019-01-02T04:06:19.158Z,102151.23
2019-01-02T04:08:50.314Z,102143.14
2019-01-02T04:11:20.700Z,102163.86
2019-01-02T04:13:51.128Z,102152.77
2019-01-02T04:16:21.501Z,102157.30
2019-01-02T04:18:51.896Z,102175.55
2019-01-02T04:21:22.296Z,102185.38
2019-01-02T04:23:52.679Z,102186.09
2019-01-02T04:26:23.062Z,102176.70
2019-01-02T04:28:53.457Z,102176.95
2019-01-02T04:31:24.619Z,102178.77
2019-01-02T04:33:55.014Z,102201.22
2019-01-02T04:36:25.389Z,102200.64
2019-01-02T04:38:55.800Z,102215.23
2019-01-02T04:41:26.184Z,102243.58
2019-01-02T04:43:56.565Z,102223.52
2019-01-02T04:46:26.966Z,102223.05
2019-01-02T04:48:57.868Z,102212.16
2019-01-02T04:51:28.255Z,102239.19
2019-01-02T04:53:58.711Z,102293.77
2019-01-02T04:56:29.092Z,102268.25
2019-01-02T04:58:59.480Z,102240.45
2019-01-02T05:01:29.864Z,102252.51
2019-01-02T05:04:00.249Z,102262.67
2019-01-02T05:06:30.703Z,102267.37
2019-01-02T05:09:01.089Z,102262.12
2019-01-02T05:11:31.466Z,102270.47
2019-01-02T05:14:01.860Z,102267.70
2019-01-02T05:16:32.231Z,102266.56
2019-01-02T05:19:02.631Z,102276.31
2019-01-02T05:21:33.005Z,102271.85
2019-01-02T05:24:03.426Z,102284.60
2019-01-02T05:26:33.812Z,102283.77
2019-01-02T05:29:04.489Z,102291.23
2019-01-02T05:31:34.873Z,102235.70
2019-01-02T05:34:05.785Z,102298.68
2019-01-02T05:36:36.144Z,102310.83
2019-01-02T05:39:08.256Z,102325.80
2019-01-02T05:41:38.634Z,102319.69
2019-01-02T05:44:09.005Z,102325.37
2019-01-02T05:46:39.760Z,102334.80
2019-01-02T05:49:10.142Z,102376.99
2019-01-02T05:51:40.517Z,102366.64
2019-01-02T05:54:10.990Z,102365.83
2019-01-02T05:56:41.740Z,102346.29
2019-01-02T05:59:12.133Z,102369.67
2019-01-02T06:01:42.503Z,102374.22
2019-01-02T06:04:13.213Z,102383.55
2019-01-02T06:06:43.586Z,102390.61
2019-01-02T06:09:14.269Z,102399.86
2019-01-02T06:11:45.011Z,102404.09
2019-01-02T06:14:15.691Z,102406.76
2019-01-02T06:16:46.096Z,102411.00
2019-01-02T06:19:16.481Z,102425.89
2019-01-02T06:21:47.232Z,102452.84
2019-01-02T06:24:17.608Z,102451.71
2019-01-02T06:26:48.005Z,102442.56
2019-01-02T06:29:18.353Z,102469.48
2019-01-02T06:31:48.763Z,102503.58
2019-01-02T06:34:19.148Z,102469.23
2019-01-02T06:36:49.545Z,102458.31
2019-01-02T06:39:20.018Z,102504.87
2019-01-02T06:41:50.412Z,102479.59
2019-01-02T06:44:20.863Z,102498.05
2019-01-02T06:46:51.262Z,102541.67
2019-01-02T06:49:21.666Z,102518.66
2019-01-02T06:51:52.021Z,102526.95
2019-01-02T06:54:22.442Z,102531.91
2019-01-02T06:56:52.827Z,102546.14
2019-01-02T06:59:23.175Z,102547.46
2019-01-02T07:01:53.577Z,102560.20
2019-01-02T07:04:23.945Z,102559.56
2019-01-02T07:06:54.449Z,102554.26
2019-01-02T07:09:25.151Z,102563.44
2019-01-02T07:11:55.549Z,102572.89
2019-01-02T07:14:25.958Z,102606.84
2019-01-02T07:16:56.322Z,102585.16
2019-01-02T07:19:26.715Z,102584.92
2019-01-02T07:21:57.091Z,102608.16
2019-01-02T07:24:27.547Z,102605.44
2019-01-02T07:26:57.917Z,102634.42
2019-01-02T07:29:28.347Z,102623.13
2019-01-02T07:31:58.724Z,102613.80
2019-01-02T07:34:36.909Z,102619.24
2019-01-02T07:37:34.228Z,102651.92
2019-01-02T07:40:46.828Z,102652.16
2019-01-02T07:43:41.578Z,102656.33
2019-01-02T07:46:31.863Z,102669.95
2019-01-02T07:49:38.670Z,102673.39
2019-01-02T07:52:35.730Z,102681.44
2019-01-02T07:55:46.584Z,102699.71
2019-01-02T07:58:53.687Z,102714.50
2019-01-02T08:01:34.933Z,102679.88
2019-01-02T08:04:46.170Z,102697.64
2019-01-02T08:07:58.917Z,102674.39
2019-01-02T08:11:06.079Z,102737.70
2019-01-02T08:13:47.339Z,102775.68
2019-01-02T08:16:49.657Z,102715.17
2019-01-02T08:19:30.526Z,102706.95
2019-01-02T08:22:36.252Z,102717.93
2019-01-02T08:25:31.857Z,102733.73
2019-01-02T08:29:04.756Z,102752.78
2019-01-02T08:32:32.221Z,102752.17
2019-01-02T08:40:10.152Z,102753.38
2019-01-02T08:43:02.374Z,102774.78
2019-01-02T08:46:25.255Z,102812.74
2019-01-02T08:52:53.679Z,102841.14
2019-01-02T08:55:29.026Z,102816.06
2019-01-02T08:58:22.212Z,102829.39
2019-01-02T09:01:20.036Z,102822.17
2019-01-02T09:04:10.330Z,102845.69
2019-01-02T09:07:06.405Z,102835.73
2019-01-02T09:10:19.219Z,102907.12
2019-01-02T09:13:15.143Z,102864.44
2019-01-02T09:16:21.846Z,102841.25
2019-01-02T09:19:19.668Z,102884.41
2019-01-02T09:22:34.159Z,102874.58
2019-01-02T09:25:36.716Z,102877.28
2019-01-02T09:28:23.585Z,102875.97
2019-01-02T09:31:39.480Z,102890.24
2019-01-02T09:34:14.738Z,102902.01
2019-01-02T09:37:09.163Z,102903.45
2019-01-02T09:39:56.004Z,102901.27
2019-01-02T09:42:49.363Z,102922.44
2019-01-02T09:46:08.272Z,102903.45
2019-01-02T09:48:55.135Z,102953.52
2019-01-02T09:51:45.251Z,102909.36
2019-01-02T09:54:53.040Z,102903.33
2019-01-02T09:57:28.380Z,102918.44
2019-01-02T10:00:29.553Z,102930.30
2019-01-02T10:03:42.450Z,102917.36
2019-01-02T10:06:35.400Z,102909.72
2019-01-02T10:09:39.055Z,102918.56
2019-01-02T10:12:29.094Z,102932.95
2019-01-02T10:15:21.006Z,102925.75
2019-01-02T10:18:01.954Z,102925.42
2019-01-02T10:20:52.313Z,102924.67
2019-01-02T10:23:39.353Z,102866.14
2019-01-02T10:26:22.768Z,102932.76
2019-01-02T10:28:58.029Z,102939.00
2019-01-02T10:31:43.849Z,102934.58
2019-01-02T10:34:21.859Z,102944.33
2019-01-02T10:37:19.672Z,102924.87
2019-01-02T10:40:35.450Z,102930.31
2019-01-02T10:43:35.678Z,102941.80
2019-01-02T10:46:31.838Z,102934.33
2019-01-02T10:49:18.848Z,102938.63
2019-01-02T10:52:10.449Z,102952.02
2019-01-02T10:54:51.411Z,102944.96
2019-01-02T10:58:06.909Z,102947.75
2019-01-02T11:01:16.978Z,102949.41
2019-01-02T11:04:15.836Z,102897.28
2019-01-02T11:07:15.291Z,102928.45
2019-01-02T11:10:05.334Z,102956.77
2019-01-02T11:12:43.305Z,102965.46
2019-01-02T11:15:33.689Z,102955.83
2019-01-02T11:18:11.660Z,102992.85
2019-01-02T11:21:10.881Z,103007.80
2019-01-02T11:24:18.488Z,102991.86
2019-01-02T11:27:25.498Z,102994.39
2019-01-02T11:30:15.154Z,102996.36
2019-01-02T11:33:19.298Z,102987.97
2019-01-02T11:36:20.794Z,102979.63
2019-01-02T11:38:56.035Z,102974.40
2019-01-02T11:41:37.122Z,102997.11
2019-01-02T11:44:27.048Z,102997.03
2019-01-02T11:46:57.436Z,102988.28
2019-01-02T11:49:27.805Z,102974.80
2019-01-02T11:51:58.220Z,102984.36
2019-01-02T11:54:28.596Z,102989.66
2019-01-02T11:56:59.254Z,102988.70
2019-01-02T11:59:29.641Z,102994.31
2019-01-02T12:02:00.013Z,103000.06
2019-01-02T12:04:30.430Z,103009.22
2019-01-02T12:07:00.787Z,103001.27
2019-01-02T12:09:31.185Z,102998.67
2019-01-02T12:12:01.563Z,103032.86
2019-01-02T12:14:31.940Z,103001.05
2019-01-02T12:17:02.391Z,103000.64
2019-01-02T12:19:32.842Z,103004.38
2019-01-02T12:22:03.211Z,103012.24
2019-01-02T12:24:33.592Z,103018.02
2019-01-02T12:27:04.021Z,103017.93
2019-01-02T12:29:34.451Z,103027.52
2019-01-02T12:32:04.940Z,103039.36
2019-01-02T12:34:35.322Z,103019.56
2019-01-02T12:37:05.795Z,103037.32
2019-01-02T12:39:36.187Z,103035.13
2019-01-02T12:42:06.643Z,103088.52
2019-01-02T12:44:37.377Z,103044.14
2019-01-02T12:47:07.870Z,103037.56
2019-01-02T12:49:38.539Z,103078.78
2019-01-02T12:52:08.970Z,103058.81
2019-01-02T12:54:39.353Z,103069.38
2019-01-02T12:57:09.746Z,103077.00
2019-01-02T12:59:41.159Z,103097.63
2019-01-02T13:02:31.661Z,103062.58
2019-01-02T13:05:12.756Z,103089.81
2019-01-02T13:07:51.014Z,103089.27
2019-01-02T13:10:26.308Z,103086.28
2019-01-02T13:13:41.077Z,103082.36
2019-01-02T13:16:20.407Z,103087.55
2019-01-02T13:19:13.147Z,103103.36
2019-01-02T13:22:14.433Z,103101.09
2019-01-02T13:25:06.269Z,103106.38
2019-01-02T13:27:44.300Z,103135.11
2019-01-02T13:30:48.213Z,103143.18
2019-01-02T13:33:56.697Z,103156.16
2019-01-02T13:36:34.787Z,103136.78
2019-01-02T13:39:10.057Z,103139.05
2019-01-02T13:41:54.134Z,103184.80
2019-01-02T13:44:44.442Z,103140.51
2019-01-02T13:47:38.047Z,103142.55
2019-01-02T13:50:22.277Z,103173.45
2019-01-02T13:52:53.287Z,103223.42
2019-01-02T13:55:23.980Z,103173.53
2019-01-02T13:57:54.631Z,103178.97
2019-01-02T14:00:25.267Z,103162.92
2019-01-02T14:02:56.093Z,103154.97
2019-01-02T14:05:26.744Z,103167.62
2019-01-02T14:07:57.423Z,103173.05
2019-01-02T14:10:27.799Z,103171.99
2019-01-02T14:12:58.891Z,103182.05
2019-01-02T14:15:29.496Z,103188.14
2019-01-02T14:17:59.975Z,103189.80
2019-01-02T14:20:30.390Z,103175.21
2019-01-02T14:23:00.805Z,103202.22
2019-01-02T14:25:31.258Z,103207.17
2019-01-02T14:28:01.635Z,103196.38
2019-01-02T14:30:32.077Z,103194.45
2019-01-02T14:33:02.419Z,103192.02
2019-01-02T14:35:32.842Z,103204.13
2019-01-02T14:38:03.214Z,103242.16
2019-01-02T14:40:34.129Z,103223.19
2019-01-02T14:43:04.535Z,103210.22
2019-01-02T14:45:35.080Z,103214.84
2019-01-02T14:48:05.740Z,103209.49
2019-01-02T14:50:36.156Z,103220.12
2019-01-02T14:53:07.037Z,103236.98
2019-01-02T14:55:37.409Z,103219.75
2019-01-02T14:58:13.509Z,103249.91
2019-01-02T15:00:44.356Z,103238.48
2019-01-02T15:03:18.943Z,103210.84
2019-01-02T15:05:50.979Z,103241.77
2019-01-02T15:08:21.380Z,103232.12
2019-01-02T15:10:52.970Z,103240.22
2019-01-02T15:13:26.547Z,103255.34
2019-01-02T15:15:57.139Z,103279.70
2019-01-02T15:18:27.706Z,103258.14
2019-01-02T15:20:58.647Z,103268.76
2019-01-02T15:23:29.202Z,103240.55
2019-01-02T15:25:59.788Z,103262.52
2019-01-02T15:28:30.192Z,103269.97
2019-01-02T15:31:00.572Z,103272.23
2019-01-02T15:33:30.977Z,103318.61
2019-01-02T15:36:01.549Z,103274.11
2019-01-02T15:38:32.340Z,103263.98
2019-01-02T15:41:02.743Z,103279.10
2019-01-02T15:43:33.359Z,103290.53
2019-01-02T15:46:04.099Z,103300.45
2019-01-02T15:48:34.777Z,103287.13
2019-01-02T15:51:05.350Z,103293.28
2019-01-02T15:53:35.903Z,103325.09
2019-01-02T15:56:06.467Z,103307.59
2019-01-02T15:58:36.867Z,103314.69
2019-01-02T16:01:07.258Z,103294.13
2019-01-02T16:03:37.648Z,103304.19
2019-01-02T16:06:08.031Z,103301.27
2019-01-02T16:08:38.429Z,103303.70
2019-01-02T16:11:08.824Z,103323.80
2019-01-02T16:13:39.241Z,103314.72
2019-01-02T16:16:09.599Z,103311.15
2019-01-02T16:18:40.047Z,103331.81
2019-01-02T16:21:10.418Z,103335.30
2019-01-02T16:23:40.806Z,103332.15
2019-01-02T16:26:11.174Z,103310.09
2019-01-02T16:28:41.579Z,103378.67
2019-01-02T16:31:11.990Z,103314.23
2019-01-02T16:33:42.406Z,103330.77
2019-01-02T16:36:12.763Z,103332.63
2019-01-02T16:38:43.150Z,103326.06
2019-01-02T16:41:13.530Z,103324.28
2019-01-02T16:43:44.194Z,103320.31
2019-01-02T16:46:14.665Z,103332.06
2019-01-02T16:48:45.080Z,103335.63
2019-01-02T16:51:15.433Z,103356.22
2019-01-02T16:53:45.820Z,103348.44
2019-01-02T16:56:16.209Z,103360.92
2019-01-02T16:58:46.629Z,103353.62
2019-01-02T17:01:17.093Z,103341.39
2019-01-02T17:03:47.481Z,103356.14
2019-01-02T17:06:18.032Z,103362.95
2019-01-02T17:08:48.408Z,103361.89
2019-01-02T17:11:18.901Z,103374.05
2019-01-02T17:13:49.693Z,103371.30
2019-01-02T17:16:20.091Z,103367.81
2019-01-02T17:18:50.551Z,103365.30
2019-01-02T17:21:20.905Z,103372.43
2019-01-02T17:23:51.336Z,103384.91
2019-01-02T17:26:21.704Z,103377.53
2019-01-02T17:28:52.094Z,103383.16
2019-01-02T17:31:22.575Z,103379.51
2019-01-02T17:33:52.958Z,103381.42
2019-01-02T17:36:23.413Z,103380.61
2019-01-02T17:38:53.856Z,103402.66
2019-01-02T17:41:24.245Z,103423.17
2019-01-02T17:43:54.614Z,103386.30
2019-01-02T17:46:25.037Z,103387.51
2019-01-02T17:48:55.378Z,103388.48
2019-01-02T17:51:25.842Z,103393.83
2019-01-02T17:53:56.521Z,103396.03
2019-01-02T17:56:26.911Z,103392.22
2019-01-02T17:58:57.311Z,103395.92
2019-01-02T18:01:27.765Z,103389.68
2019-01-02T18:03:58.655Z,103408.08
2019-01-02T18:06:29.289Z,103399.98
2019-01-02T18:08:59.950Z,103418.78
2019-01-02T18:11:30.594Z,103406.95
2019-01-02T18:14:00.965Z,103400.71
2019-01-02T18:16:33.023Z,103414.58
2019-01-02T18:19:03.379Z,103425.75
2019-01-02T18:21:33.766Z,103412.81
2019-01-02T18:24:04.135Z,103423.65
2019-01-02T18:26:34.525Z,103420.52
2019-01-02T18:29:05.505Z,103433.16
2019-01-02T18:31:36.338Z,103435.67
2019-01-02T18:34:06.726Z,103426.19
2019-01-02T18:36:37.122Z,103420.75
2019-01-02T18:39:08.543Z,103433.73
2019-01-02T18:41:38.916Z,103446.05
2019-01-02T18:44:09.420Z,103428.52
2019-01-02T18:46:39.774Z,103438.11
2019-01-02T18:49:10.170Z,103434.70
2019-01-02T18:51:40.535Z,103435.02
2019-01-02T18:54:10.954Z,103428.86
2019-01-02T18:56:41.325Z,103426.91
2019-01-02T18:59:11.738Z,103447.50
2019-01-02T19:01:42.125Z,103429.19
2019-01-02T19:04:12.476Z,103449.94
2019-01-02T19:06:42.937Z,103452.20
2019-01-02T19:09:13.300Z,103437.45
2019-01-02T19:11:43.703Z,103434.86
2019-01-02T19:14:15.353Z,103443.05
2019-01-02T19:16:45.999Z,103453.27
2019-01-02T19:19:16.356Z,103445.33
2019-01-02T19:21:46.793Z,103455.30
2019-01-02T19:24:17.456Z,103445.08
2019-01-02T19:26:47.905Z,103450.34
2019-01-02T19:29:18.311Z,103448.97
2019-01-02T19:31:48.666Z,103451.94
2019-01-02T19:34:19.077Z,103445.81
2019-01-02T19:36:49.427Z,103399.95
2019-01-02T19:39:20.306Z,103467.11
2019-01-02T19:41:50.995Z,103478.30
2019-01-02T19:44:21.824Z,103466.63
2019-01-02T19:46:52.524Z,103460.54
2019-01-02T19:49:22.903Z,103466.38
2019-01-02T19:51:53.317Z,103465.97
2019-01-02T19:54:23.669Z,103472.46
2019-01-02T19:56:54.880Z,103474.64
2019-01-02T19:59:25.252Z,103469.22
2019-01-02T20:01:55.677Z,103465.16
2019-01-02T20:04:26.039Z,103492.09
2019-01-02T20:06:56.767Z,103470.35
2019-01-02T20:09:27.526Z,103495.65
2019-01-02T20:11:57.878Z,103471.00
2019-01-02T20:14:28.279Z,103478.46
2019-01-02T20:16:59.510Z,103462.73
2019-01-02T20:19:29.907Z,103477.48
2019-01-02T20:22:00.302Z,103469.70
2019-01-02T20:24:30.708Z,103475.22
2019-01-02T20:27:01.177Z,103485.75
2019-01-02T20:29:31.979Z,103475.30
2019-01-02T20:32:04.308Z,103477.41
2019-01-02T20:34:34.595Z,103469.87
2019-01-02T20:37:04.998Z,103466.87
2019-01-02T20:39:35.961Z,103470.19
2019-01-02T20:42:06.425Z,103468.97
2019-01-02T20:44:36.804Z,103469.70
2019-01-02T20:47:07.184Z,103473.13
2019-01-02T20:49:37.568Z,103470.53
2019-01-02T20:52:08.024Z,103467.37
2019-01-02T20:54:38.415Z,103465.41
2019-01-02T20:57:08.835Z,103460.45
2019-01-02T20:59:39.220Z,103469.23
2019-01-02T21:02:09.619Z,103451.24
2019-01-02T21:04:39.988Z,103467.13
2019-01-02T21:07:10.394Z,103449.77
2019-01-02T21:09:40.771Z,103448.48
2019-01-02T21:12:11.158Z,103452.20
2019-01-02T21:14:41.535Z,103451.70
2019-01-02T21:17:11.949Z,103460.70
2019-01-02T21:19:42.649Z,103454.95
2019-01-02T21:22:13.095Z,103452.77
2019-01-02T21:24:43.472Z,103444.58
2019-01-02T21:27:13.857Z,103464.84
2019-01-02T21:29:44.296Z,103450.89
2019-01-02T21:32:14.680Z,103460.95
2019-01-02T21:34:45.073Z,103463.78
2019-01-02T21:37:16.159Z,103452.44
2019-01-02T21:39:46.911Z,103448.95
2019-01-02T21:42:17.265Z,103447.25
2019-01-02T21:44:47.647Z,103454.66
2019-01-02T21:47:18.029Z,103460.08
2019-01-02T21:49:48.432Z,103452.21
2019-01-02T21:52:18.840Z,103461.13
2019-01-02T21:54:49.212Z,103460.31
2019-01-02T21:57:19.678Z,103461.77
2019-01-02T21:59:50.277Z,103472.47
2019-01-02T22:02:20.754Z,103473.28
2019-01-02T22:04:51.497Z,103470.61
2019-01-02T22:07:22.240Z,103478.56
2019-01-02T22:09:52.698Z,103467.94
2019-01-02T22:12:23.080Z,103475.48
2019-01-02T22:14:53.509Z,103488.53
2019-01-02T22:17:23.861Z,103477.64
2019-01-02T22:19:54.256Z,103480.42
2019-01-02T22:22:24.662Z,103484.78
2019-01-02T22:24:55.399Z,103484.85
2019-01-02T22:27:26.082Z,103487.77
2019-01-02T22:29:56.432Z,103490.77
2019-01-02T22:32:26.817Z,103484.48
2019-01-02T22:34:57.200Z,103482.91
2019-01-02T22:37:27.608Z,103488.26
2019-01-02T22:39:58.004Z,103494.53
2019-01-02T22:42:31.647Z,103498.91
2019-01-02T22:45:02.044Z,103491.61
2019-01-02T22:47:32.418Z,103500.20
2019-01-02T22:50:02.820Z,103493.38
2019-01-02T22:52:33.183Z,103493.47
2019-01-02T22:55:03.655Z,103500.84
2019-01-02T22:57:34.095Z,103503.75
2019-01-02T23:00:09.109Z,103499.85
2019-01-02T23:02:41.128Z,103503.42
2019-01-02T23:05:19.022Z,103501.97
2019-01-02T23:07:53.752Z,103500.34
2019-01-02T23:10:25.768Z,103498.72
2019-01-02T23:13:14.489Z,103500.66
2019-01-02T23:15:52.480Z,103489.95
2019-01-02T23:18:39.286Z,103493.47
2019-01-02T23:21:20.646Z,103495.49
2019-01-02T23:23:52.929Z,103501.66
2019-01-02T23:26:28.095Z,103504.89
2019-01-02T23:29:15.948Z,103497.12
2019-01-02T23:31:50.695Z,103507.48
2019-01-02T23:34:25.690Z,103501.64
2019-01-02T23:36:57.699Z,103507.16
2019-01-02T23:39:44.974Z,103498.56
2019-01-02T23:42:17.132Z,103507.80
2019-01-02T23:44:58.344Z,103504.89
2019-01-02T23:47:30.373Z,103501.48
2019-01-02T23:50:14.789Z,103508.70
2019-01-02T23:53:02.086Z,103510.38
2019-01-02T23:55:34.248Z,103511.44
2019-01-02T23:58:22.652Z,103511.59
